Time;durP1;ratioP1;P1;durP2;ratioP2;P2;SDS_P1;SDS_P2;PMS_P1;PMS_P2;Temp;Humidity;BMP_temperature;BMP_pressure;BME280_temperature;BME280_humidity;BME280_pressure;Samples;Min_cycle;Max_cycle;Signal;HPM_P1;HPM_P2
2021/12/02 00:01:31;;;;;;;0.70;0.60;;;22.20;48.30;;;;;;5051708;28;20186;-67
2021/12/02 00:03:58;;;;;;;0.57;0.57;;;22.20;48.30;;;;;;5068225;28;20245;-67
2021/12/02 00:06:24;;;;;;;0.60;0.60;;;22.20;48.30;;;;;;5051484;28;20194;-67
2021/12/02 00:08:51;;;;;;;0.50;0.50;;;22.20;48.30;;;;;;5068068;28;20297;-67
2021/12/02 00:11:18;;;;;;;0.60;0.60;;;22.20;48.30;;;;;;5051441;28;20642;-67
2021/12/02 00:21:50;;;;;;;0.60;0.60;;;22.20;48.10;;;;;;5051617;28;20224;-67
2021/12/02 00:24:19;;;;;;;0.60;0.60;;;22.10;48.10;;;;;;5051575;28;20190;-67
2021/12/02 00:26:48;;;;;;;0.60;0.60;;;22.20;48.20;;;;;;5051548;28;20188;-66
2021/12/02 00:29:18;;;;;;;0.60;0.60;;;22.10;48.10;;;;;;5051037;28;20222;-66
2021/12/02 00:31:47;;;;;;;1.02;0.57;;;22.10;48.20;;;;;;5051361;28;20178;-67
2021/12/02 00:34:14;;;;;;;0.63;0.60;;;22.20;48.20;;;;;;5052354;28;20216;-67
2021/12/02 00:36:41;;;;;;;0.60;0.60;;;22.10;48.10;;;;;;5050965;28;20278;-66
2021/12/02 00:39:16;;;;;;;0.70;0.70;;;22.10;48.10;;;;;;5034697;28;20170;-67
2021/12/02 00:41:43;;;;;;;0.73;0.57;;;22.20;48.20;;;;;;5044092;28;20216;-67
2021/12/02 00:44:12;;;;;;;0.60;0.60;;;22.20;48.20;;;;;;5072219;28;20291;-66
2021/12/02 00:46:39;;;;;;;0.75;0.63;;;22.10;48.00;;;;;;5071138;28;20206;-67
2021/12/02 00:49:11;;;;;;;0.75;0.60;;;22.10;48.00;;;;;;5054279;28;20210;-67
2021/12/02 00:51:38;;;;;;;0.43;0.43;;;22.10;48.00;;;;;;5071046;28;20751;-67
2021/12/02 00:54:08;;;;;;;0.40;0.40;;;22.10;48.00;;;;;;5070962;28;20248;-67
2021/12/02 00:56:35;;;;;;;0.60;0.60;;;22.10;47.80;;;;;;5071173;28;20185;-67
2021/12/02 00:59:02;;;;;;;0.80;0.60;;;22.10;47.80;;;;;;5070971;28;20239;-68
2021/12/02 01:01:34;;;;;;;0.73;0.70;;;22.10;48.00;;;;;;5071025;28;20691;-67
2021/12/02 01:04:03;;;;;;;0.50;0.50;;;22.10;48.00;;;;;;5054246;28;20645;-67
2021/12/02 01:06:29;;;;;;;0.70;0.70;;;22.10;48.10;;;;;;5072121;28;20185;-67
2021/12/02 01:08:55;;;;;;;0.68;0.65;;;22.10;48.10;;;;;;5070639;28;20201;-67
2021/12/02 01:11:21;;;;;;;0.63;0.63;;;22.10;48.60;;;;;;5070795;28;20184;-67
2021/12/02 01:13:48;;;;;;;0.40;0.40;;;22.10;48.10;;;;;;5053878;28;20263;-67
2021/12/02 01:16:15;;;;;;;0.73;0.50;;;22.10;48.00;;;;;;5072022;28;20194;-67
2021/12/02 01:18:42;;;;;;;0.50;0.50;;;22.10;48.10;;;;;;5053644;28;20218;-67
2021/12/02 01:21:15;;;;;;;0.75;0.60;;;22.10;48.00;;;;;;5054113;28;20185;-66
2021/12/02 01:23:44;;;;;;;0.70;0.50;;;22.10;48.00;;;;;;5070718;28;20334;-67
2021/12/02 01:26:10;;;;;;;0.50;0.50;;;22.10;48.00;;;;;;5072775;28;20189;-67
2021/12/02 01:28:37;;;;;;;0.50;0.50;;;22.10;47.90;;;;;;5074233;28;20286;-67
2021/12/02 01:31:04;;;;;;;0.50;0.50;;;22.10;47.90;;;;;;5057822;28;20185;-67
2021/12/02 01:33:30;;;;;;;0.70;0.70;;;22.10;47.80;;;;;;5074260;28;20214;-68
2021/12/02 01:36:03;;;;;;;0.50;0.50;;;22.10;47.90;;;;;;5058241;28;20193;-67
2021/12/02 01:38:31;;;;;;;0.55;0.40;;;22.00;47.70;;;;;;5055242;28;20194;-67
2021/12/02 01:40:58;;;;;;;0.40;0.40;;;22.10;47.80;;;;;;5054480;28;20185;-67
2021/12/02 01:43:47;;;;;;;0.63;0.50;;;22.00;47.80;;;;;;5054260;28;20178;-68
2021/12/02 01:46:23;;;;;;;0.63;0.63;;;22.10;47.90;;;;;;5054166;28;20222;-68
2021/12/02 01:49:02;;;;;;;0.95;0.50;;;22.10;48.00;;;;;;5053933;28;20209;-67
2021/12/02 01:51:29;;;;;;;0.40;0.40;;;22.10;48.00;;;;;;5037257;28;20266;-67
2021/12/02 01:54:25;;;;;;;0.60;0.50;;;22.10;48.00;;;;;;5054070;28;20217;-67
2021/12/02 01:57:22;;;;;;;0.52;0.40;;;22.00;47.90;;;;;;5053102;28;20201;-66
2021/12/02 01:59:51;;;;;;;0.82;0.60;;;22.10;47.80;;;;;;5053880;28;20178;-67
2021/12/02 02:02:20;;;;;;;0.32;0.32;;;22.10;47.80;;;;;;5054297;28;20193;-68
2021/12/02 02:04:46;;;;;;;0.40;0.40;;;22.10;48.00;;;;;;5037327;28;20275;-67
2021/12/02 02:07:14;;;;;;;0.82;0.60;;;22.10;47.90;;;;;;5037446;28;20584;-67
2021/12/02 02:09:41;;;;;;;0.50;0.50;;;22.10;47.90;;;;;;5053684;28;20167;-67
2021/12/02 02:12:11;;;;;;;0.60;0.50;;;22.10;47.90;;;;;;5037069;28;20236;-68
2021/12/02 02:14:38;;;;;;;0.40;0.40;;;22.10;48.00;;;;;;5036921;28;20320;-66
2021/12/02 02:17:16;;;;;;;0.40;0.40;;;22.10;48.00;;;;;;5056355;28;20213;-67
2021/12/02 02:19:42;;;;;;;0.30;0.30;;;22.10;48.00;;;;;;5073694;28;20189;-68
2021/12/02 02:22:08;;;;;;;0.88;0.40;;;22.10;48.00;;;;;;5073914;28;20178;-67
2021/12/02 02:24:34;;;;;;;0.65;0.40;;;22.10;47.90;;;;;;5074648;28;20188;-67
2021/12/02 02:27:01;;;;;;;0.30;0.30;;;22.10;47.90;;;;;;5074492;28;20267;-67
2021/12/02 02:29:27;;;;;;;0.47;0.40;;;22.10;47.80;;;;;;5040176;28;20753;-67
2021/12/02 02:31:53;;;;;;;0.75;0.50;;;22.10;47.80;;;;;;5056978;28;20193;-67
2021/12/02 02:34:23;;;;;;;0.47;0.47;;;22.00;47.70;;;;;;5074470;28;20221;-67
2021/12/02 02:36:55;;;;;;;0.60;0.50;;;22.00;47.70;;;;;;5059468;28;20248;-67
2021/12/02 02:39:22;;;;;;;0.40;0.40;;;22.10;47.70;;;;;;5074409;28;20215;-67
2021/12/02 02:41:56;;;;;;;0.50;0.50;;;22.10;47.70;;;;;;5073230;28;20173;-67
2021/12/02 02:44:24;;;;;;;0.50;0.50;;;22.10;47.80;;;;;;5056327;28;20230;-67
2021/12/02 02:46:50;;;;;;;0.45;0.45;;;22.00;47.70;;;;;;5074158;28;20213;-67
2021/12/02 02:49:16;;;;;;;0.50;0.50;;;22.10;47.80;;;;;;5056043;28;20189;-68
2021/12/02 02:51:43;;;;;;;0.65;0.65;;;22.10;47.90;;;;;;5056107;28;20185;-67
2021/12/02 02:54:12;;;;;;;0.55;0.40;;;22.10;47.90;;;;;;5056239;28;20254;-67
2021/12/02 02:56:58;;;;;;;0.43;0.43;;;22.10;47.90;;;;;;5056512;28;20276;-67
2021/12/02 03:00:00;;;;;;;0.75;0.60;;;22.10;47.90;;;;;;5055830;28;20694;-67
2021/12/02 03:05:31;;;;;;;0.40;0.40;;;22.00;47.60;;;;;;5056001;28;20177;-67
2021/12/02 03:08:10;;;;;;;0.40;0.40;;;22.10;47.80;;;;;;5056037;28;20272;-67
2021/12/02 03:10:49;;;;;;;0.43;0.43;;;22.00;47.80;;;;;;5056277;28;20169;-67
2021/12/02 03:13:23;;;;;;;0.95;0.40;;;22.00;47.80;;;;;;5039169;28;20684;-67
2021/12/02 03:18:37;;;;;;;0.82;0.50;;;22.10;47.90;;;;;;5076720;28;20196;-67
2021/12/02 03:21:21;;;;;;;0.57;0.52;;;22.10;47.80;;;;;;5059243;28;20211;-67
2021/12/02 03:23:54;;;;;;;0.50;0.50;;;22.10;47.70;;;;;;5063877;28;20664;-67
2021/12/02 03:26:20;;;;;;;0.30;0.30;;;22.10;47.80;;;;;;5038912;28;20185;-67
2021/12/02 03:28:48;;;;;;;0.50;0.50;;;22.10;47.80;;;;;;5072937;28;20212;-68
2021/12/02 03:31:15;;;;;;;0.68;0.68;;;22.00;47.80;;;;;;5063593;28;20204;-67
2021/12/02 03:33:42;;;;;;;0.40;0.40;;;22.00;47.80;;;;;;5057729;28;20692;-67
2021/12/02 03:36:09;;;;;;;0.50;0.40;;;22.00;47.80;;;;;;5067075;28;20197;-67
2021/12/02 03:38:35;;;;;;;0.35;0.35;;;22.00;47.80;;;;;;5038789;28;20194;-67
2021/12/02 03:41:01;;;;;;;0.40;0.40;;;22.00;47.80;;;;;;5041878;28;20178;-68
2021/12/02 03:43:44;;;;;;;0.40;0.40;;;22.00;47.80;;;;;;5053798;28;20192;-67
2021/12/02 03:46:15;;;;;;;0.45;0.45;;;22.00;47.80;;;;;;5075267;28;20649;-67
2021/12/02 03:48:41;;;;;;;0.43;0.43;;;22.00;47.80;;;;;;5074590;28;20204;-67
2021/12/02 03:51:10;;;;;;;0.45;0.45;;;22.00;47.70;;;;;;5058291;28;20181;-67
2021/12/02 03:53:36;;;;;;;0.30;0.30;;;22.00;47.60;;;;;;5074981;28;20212;-67
2021/12/02 03:56:06;;;;;;;0.45;0.30;;;22.00;47.60;;;;;;5075011;28;20185;-67
2021/12/02 03:58:34;;;;;;;0.30;0.28;;;22.00;47.50;;;;;;5058015;28;20207;-67
2021/12/02 04:01:00;;;;;;;0.50;0.40;;;22.00;47.60;;;;;;5074914;28;20192;-67
2021/12/02 04:03:26;;;;;;;0.40;0.40;;;22.00;47.50;;;;;;5074869;28;20185;-67
2021/12/02 04:05:52;;;;;;;0.40;0.30;;;22.00;47.50;;;;;;5075104;28;20659;-67
2021/12/02 04:08:18;;;;;;;0.30;0.30;;;22.00;47.50;;;;;;5074920;28;20208;-67
2021/12/02 04:10:45;;;;;;;0.35;0.35;;;22.00;47.60;;;;;;5074891;28;20191;-67
2021/12/02 04:15:39;;;;;;;0.30;0.30;;;22.00;47.60;;;;;;5074744;28;20216;-66
2021/12/02 04:18:06;;;;;;;0.60;0.40;;;22.00;47.60;;;;;;5075315;22;20433;-70
2021/12/02 04:20:33;;;;;;;0.30;0.30;;;22.00;47.70;;;;;;5091087;28;20263;-69
2021/12/02 04:22:59;;;;;;;0.40;0.40;;;22.00;47.70;;;;;;5089460;28;20582;-70
2021/12/02 04:25:26;;;;;;;0.40;0.40;;;22.00;47.60;;;;;;5083641;28;20189;-69
2021/12/02 04:27:53;;;;;;;0.50;0.50;;;22.00;47.70;;;;;;5092405;28;20208;-70
2021/12/02 04:30:24;;;;;;;0.30;0.30;;;22.00;47.70;;;;;;5091442;28;20184;-70
2021/12/02 04:32:50;;;;;;;0.55;0.40;;;22.00;47.70;;;;;;5108303;28;20209;-70
2021/12/02 04:35:17;;;;;;;0.40;0.40;;;22.00;47.70;;;;;;5108349;28;20651;-69
2021/12/02 04:37:44;;;;;;;0.30;0.30;;;22.00;47.70;;;;;;5108134;28;20243;-70
2021/12/02 04:40:15;;;;;;;0.65;0.50;;;22.00;47.60;;;;;;5108252;28;20238;-69
2021/12/02 04:42:42;;;;;;;0.50;0.43;;;22.00;47.60;;;;;;5091652;28;20173;-70
2021/12/02 04:45:09;;;;;;;0.30;0.30;;;22.00;47.50;;;;;;5091320;28;20181;-70
2021/12/02 04:47:34;;;;;;;0.40;0.40;;;22.00;47.50;;;;;;5091025;28;20212;-70
2021/12/02 04:50:00;;;;;;;0.35;0.35;;;22.00;47.50;;;;;;5091303;28;20185;-70
2021/12/02 04:52:26;;;;;;;0.30;0.30;;;22.00;47.50;;;;;;5091162;28;20193;-70
2021/12/02 04:54:52;;;;;;;0.40;0.40;;;21.90;47.40;;;;;;5091130;28;20208;-70
2021/12/02 04:57:18;;;;;;;1.38;0.30;;;22.00;47.60;;;;;;5091336;28;20648;-70
2021/12/02 04:59:44;;;;;;;0.30;0.30;;;22.00;47.60;;;;;;5074641;28;20268;-70
2021/12/02 05:02:10;;;;;;;0.40;0.40;;;22.00;47.60;;;;;;5078205;28;20648;-70
2021/12/02 05:04:35;;;;;;;0.45;0.45;;;22.00;47.60;;;;;;5095088;28;20199;-70
2021/12/02 05:07:03;;;;;;;0.68;0.40;;;22.00;47.60;;;;;;5078690;28;20224;-70
2021/12/02 05:09:29;;;;;;;0.43;0.40;;;22.00;47.60;;;;;;5095189;28;20208;-70
2021/12/02 05:11:55;;;;;;;0.30;0.30;;;22.00;47.60;;;;;;5078334;28;20191;-70
2021/12/02 05:14:21;;;;;;;0.30;0.30;;;22.00;47.60;;;;;;5094968;28;20213;-70
2021/12/02 05:16:46;;;;;;;0.47;0.40;;;22.00;47.60;;;;;;5095345;28;20237;-70
2021/12/02 05:19:12;;;;;;;0.50;0.50;;;22.00;47.60;;;;;;5077775;28;20223;-70
2021/12/02 05:21:39;;;;;;;0.45;0.40;;;22.00;47.60;;;;;;5095368;28;20177;-70
2021/12/02 05:24:05;;;;;;;0.30;0.30;;;22.00;47.60;;;;;;5078020;28;20184;-70
2021/12/02 05:26:31;;;;;;;0.40;0.40;;;22.00;47.60;;;;;;5078138;28;20184;-70
2021/12/02 05:28:57;;;;;;;0.73;0.50;;;22.00;47.60;;;;;;5077598;28;20200;-69
2021/12/02 05:31:23;;;;;;;0.30;0.30;;;22.00;47.60;;;;;;5077591;28;20299;-70
2021/12/02 05:33:49;;;;;;;0.50;0.40;;;22.00;47.50;;;;;;5094957;28;20197;-70
2021/12/02 05:36:15;;;;;;;0.40;0.40;;;22.00;47.50;;;;;;5094756;28;20260;-70
2021/12/02 05:38:41;;;;;;;0.40;0.40;;;22.00;47.50;;;;;;5094660;28;20303;-68
2021/12/02 05:41:07;;;;;;;0.38;0.38;;;22.00;47.50;;;;;;5094938;28;20187;-69
2021/12/02 05:43:34;;;;;;;0.40;0.40;;;22.00;47.40;;;;;;5094730;28;20275;-71
2021/12/02 05:46:00;;;;;;;0.50;0.40;;;22.00;47.50;;;;;;5077654;28;20279;-70
2021/12/02 05:48:26;;;;;;;0.70;0.40;;;22.00;47.40;;;;;;5095505;28;20295;-69
2021/12/02 05:50:52;;;;;;;0.63;0.40;;;22.00;47.50;;;;;;5111407;28;20215;-70
2021/12/02 05:53:18;;;;;;;0.35;0.35;;;21.90;47.40;;;;;;5077522;28;20270;-70
2021/12/02 05:55:44;;;;;;;0.32;0.32;;;22.00;47.50;;;;;;5094375;28;20551;-71
2021/12/02 05:58:11;;;;;;;0.50;0.50;;;21.90;47.30;;;;;;5077402;28;20205;-71
2021/12/02 06:00:38;;;;;;;0.40;0.40;;;22.00;47.60;;;;;;5094305;28;20185;-70
2021/12/02 06:03:04;;;;;;;0.50;0.50;;;22.00;47.60;;;;;;5094136;28;20184;-69
2021/12/02 06:05:30;;;;;;;0.43;0.40;;;22.00;47.60;;;;;;5077247;28;20181;-70
2021/12/02 06:07:58;;;;;;;0.47;0.30;;;22.00;47.60;;;;;;5111181;28;20208;-70
2021/12/02 06:10:25;;;;;;;0.40;0.40;;;22.00;47.60;;;;;;5111044;28;20177;-70
2021/12/02 06:12:51;;;;;;;0.40;0.40;;;22.00;47.60;;;;;;5093690;28;20676;-72
2021/12/02 06:15:18;;;;;;;0.50;0.40;;;22.00;47.60;;;;;;5076818;28;20188;-70
2021/12/02 06:17:44;;;;;;;0.40;0.40;;;22.00;47.60;;;;;;5079900;28;20235;-69
2021/12/02 06:20:17;;;;;;;1.95;0.50;;;22.00;47.70;;;;;;5097506;28;20153;-69
2021/12/02 06:22:44;;;;;;;0.45;0.40;;;22.00;47.60;;;;;;5097167;28;20180;-70
2021/12/02 06:27:52;;;;;;;0.50;0.40;;;22.00;47.60;;;;;;5097018;28;20235;-69
2021/12/02 06:30:20;;;;;;;0.52;0.50;;;22.00;47.40;;;;;;5080112;28;20176;-70
2021/12/02 06:32:46;;;;;;;0.40;0.40;;;21.90;47.40;;;;;;5096880;28;20215;-70
2021/12/02 06:35:12;;;;;;;0.40;0.40;;;22.00;47.40;;;;;;5079945;28;20195;-70
2021/12/02 06:37:39;;;;;;;0.55;0.55;;;21.90;47.30;;;;;;5079960;28;20211;-70
2021/12/02 06:40:07;;;;;;;0.50;0.50;;;22.00;47.50;;;;;;5097094;28;20263;-70
2021/12/02 06:42:33;;;;;;;0.50;0.50;;;22.00;47.50;;;;;;5079980;28;20184;-69
2021/12/02 06:44:59;;;;;;;0.50;0.50;;;22.00;47.50;;;;;;5096840;28;20173;-71
2021/12/02 06:47:40;;;;;;;0.38;0.38;;;22.00;47.60;;;;;;5114751;28;20168;-72
2021/12/02 06:50:13;;;;;;;0.40;0.40;;;22.00;47.70;;;;;;5113963;28;20198;-69
2021/12/02 06:52:39;;;;;;;0.50;0.50;;;22.00;47.60;;;;;;5121484;28;20187;-72
2021/12/02 06:55:05;;;;;;;0.85;0.60;;;21.90;47.60;;;;;;5097231;28;20207;-69
2021/12/02 06:57:31;;;;;;;0.63;0.60;;;21.90;47.60;;;;;;5096111;28;20196;-69
2021/12/02 07:00:03;;;;;;;0.85;0.68;;;22.00;47.60;;;;;;5084484;28;20260;-69
2021/12/02 07:02:30;;;;;;;0.70;0.70;;;22.00;47.60;;;;;;5055849;28;20197;-69
2021/12/02 07:04:57;;;;;;;0.50;0.50;;;22.00;47.60;;;;;;5050351;28;20217;-69
2021/12/02 07:07:23;;;;;;;0.50;0.50;;;22.00;47.60;;;;;;5078085;28;20211;-69
2021/12/02 07:09:49;;;;;;;0.80;0.80;;;22.00;47.50;;;;;;5090689;28;20191;-69
2021/12/02 07:12:18;;;;;;;0.65;0.57;;;22.00;47.50;;;;;;5085615;28;20185;-69
2021/12/02 07:14:47;;;;;;;0.68;0.60;;;21.90;47.40;;;;;;5096367;28;20212;-70
2021/12/02 07:17:13;;;;;;;0.52;0.52;;;22.00;47.40;;;;;;5087236;28;20190;-70
2021/12/02 07:19:40;;;;;;;0.63;0.60;;;22.00;47.40;;;;;;5087408;28;20244;-69
2021/12/02 07:22:06;;;;;;;1.02;0.60;;;22.00;47.50;;;;;;5096001;28;20176;-70
2021/12/02 07:24:32;;;;;;;0.60;0.60;;;21.90;48.20;;;;;;5095150;28;20730;-69
2021/12/02 07:26:58;;;;;;;0.55;0.52;;;21.90;47.40;;;;;;5065646;28;20269;-70
2021/12/02 07:29:24;;;;;;;0.50;0.50;;;22.00;47.60;;;;;;5080226;28;20205;-70
2021/12/02 07:31:52;;;;;;;0.50;0.50;;;21.90;47.40;;;;;;5070133;28;20176;-70
2021/12/02 07:34:21;;;;;;;0.55;0.55;;;21.90;47.60;;;;;;5105291;28;20212;-69
2021/12/02 07:36:49;;;;;;;0.63;0.57;;;21.90;47.60;;;;;;5110881;28;20274;-70
2021/12/02 07:39:15;;;;;;;0.47;0.47;;;21.90;47.50;;;;;;5086824;28;20325;-69
2021/12/02 07:41:42;;;;;;;0.90;0.47;;;22.00;47.60;;;;;;5111558;28;20172;-70
2021/12/02 07:44:11;;;;;;;0.50;0.50;;;22.00;47.60;;;;;;5075399;28;20189;-69
2021/12/02 07:46:37;;;;;;;0.43;0.43;;;21.90;47.60;;;;;;5075255;28;20229;-70
2021/12/02 07:49:03;;;;;;;0.82;0.82;;;22.00;47.70;;;;;;5075191;28;20205;-69
2021/12/02 07:51:30;;;;;;;0.55;0.50;;;21.90;47.60;;;;;;5058881;28;20189;-69
2021/12/02 07:53:58;;;;;;;0.70;0.60;;;21.90;47.60;;;;;;5092158;28;20227;-69
2021/12/02 07:56:24;;;;;;;0.57;0.57;;;21.90;47.60;;;;;;5058763;28;20189;-69
2021/12/02 07:58:50;;;;;;;0.60;0.60;;;22.00;47.60;;;;;;5058152;28;20739;-71
2021/12/02 08:01:17;;;;;;;0.50;0.50;;;21.90;47.50;;;;;;5066331;28;20275;-71
2021/12/02 08:03:44;;;;;;;0.80;0.80;;;21.90;47.50;;;;;;5088618;28;20187;-72
2021/12/02 08:06:17;;;;;;;0.50;0.50;;;21.90;47.50;;;;;;5071371;28;20282;-71
2021/12/02 08:08:45;;;;;;;0.93;0.68;;;22.00;47.50;;;;;;5072814;28;20201;-71
2021/12/02 08:11:12;;;;;;;0.68;0.65;;;21.90;47.50;;;;;;5071755;28;20210;-71
2021/12/02 08:13:38;;;;;;;0.63;0.63;;;21.90;47.50;;;;;;5071576;28;20208;-71
2021/12/02 08:16:07;;;;;;;0.90;0.55;;;21.90;47.60;;;;;;5071598;28;20182;-71
2021/12/02 08:18:34;;;;;;;0.60;0.50;;;21.90;47.60;;;;;;5057398;28;20218;-71
2021/12/02 08:21:00;;;;;;;0.60;0.60;;;22.00;47.60;;;;;;5045153;28;20686;-70
2021/12/02 08:23:27;;;;;;;0.77;0.60;;;22.00;47.60;;;;;;5074582;28;20200;-71
2021/12/02 08:25:55;;;;;;;1.95;0.70;;;21.90;47.60;;;;;;5055675;28;20195;-71
2021/12/02 08:28:21;;;;;;;0.93;0.60;;;22.00;47.60;;;;;;5063551;28;20291;-71
2021/12/02 08:30:49;;;;;;;0.82;0.70;;;22.00;47.70;;;;;;5074544;28;20253;-71
2021/12/02 08:33:15;;;;;;;0.70;0.70;;;22.00;47.70;;;;;;5092490;28;20209;-71
2021/12/02 08:35:41;;;;;;;0.98;0.77;;;22.00;47.70;;;;;;5070953;28;20220;-72
2021/12/02 08:38:10;;;;;;;0.40;0.40;;;22.00;47.70;;;;;;5055489;28;20212;-72
2021/12/02 08:40:37;;;;;;;0.63;0.60;;;22.00;47.70;;;;;;5074337;28;20176;-71
2021/12/02 08:43:12;;;;;;;1.00;0.80;;;21.90;47.60;;;;;;5073654;28;20176;-72
2021/12/02 08:45:42;;;;;;;0.50;0.50;;;21.90;47.50;;;;;;5067546;28;20191;-72
2021/12/02 08:48:10;;;;;;;0.65;0.65;;;22.00;47.60;;;;;;5109524;28;20204;-71
2021/12/02 08:50:38;;;;;;;0.60;0.60;;;21.90;47.50;;;;;;5068202;28;20706;-71
2021/12/02 08:53:06;;;;;;;0.43;0.43;;;22.00;47.50;;;;;;5071182;28;20221;-71
2021/12/02 08:55:33;;;;;;;0.50;0.50;;;22.00;47.60;;;;;;5071110;28;20182;-71
2021/12/02 08:58:01;;;;;;;0.38;0.38;;;21.90;47.50;;;;;;5053881;28;20201;-72
2021/12/02 09:00:34;;;;;;;0.73;0.73;;;21.90;47.50;;;;;;5054210;28;20272;-71
2021/12/02 09:03:03;;;;;;;0.60;0.60;;;22.00;47.60;;;;;;5068874;28;20189;-71
2021/12/02 09:05:29;;;;;;;0.63;0.47;;;22.00;47.70;;;;;;5073251;28;20193;-71
2021/12/02 09:07:55;;;;;;;0.77;0.60;;;22.00;47.60;;;;;;5052920;28;20664;-72
2021/12/02 09:10:21;;;;;;;0.50;0.50;;;22.00;47.60;;;;;;5054292;28;20186;-71
2021/12/02 09:12:49;;;;;;;0.60;0.50;;;22.00;47.70;;;;;;5070861;28;20272;-72
2021/12/02 09:15:15;;;;;;;0.70;0.70;;;22.00;47.70;;;;;;5072354;28;20166;-72
2021/12/02 09:17:41;;;;;;;0.60;0.60;;;22.00;47.60;;;;;;5053767;28;20205;-72
2021/12/02 09:20:11;;;;;;;0.40;0.40;;;22.00;47.70;;;;;;5070963;28;20174;-72
2021/12/02 09:22:37;;;;;;;0.50;0.50;;;22.00;47.60;;;;;;5054401;28;20257;-72
2021/12/02 09:25:05;;;;;;;0.50;0.50;;;22.00;47.60;;;;;;5054118;28;20232;-71
2021/12/02 09:27:32;;;;;;;0.47;0.47;;;22.00;47.60;;;;;;5070663;28;20247;-72
2021/12/02 09:29:58;;;;;;;0.40;0.40;;;22.00;47.60;;;;;;5070677;28;20651;-71
2021/12/02 09:32:24;;;;;;;0.60;0.50;;;22.00;47.60;;;;;;5070769;28;20268;-71
2021/12/02 09:34:50;;;;;;;0.52;0.52;;;22.00;47.60;;;;;;5070770;28;20309;-71
2021/12/02 09:37:17;;;;;;;1.25;0.40;;;22.00;47.60;;;;;;5070528;28;20189;-71
2021/12/02 09:39:42;;;;;;;0.80;0.50;;;22.00;47.60;;;;;;5070765;28;20186;-71
2021/12/02 09:42:10;;;;;;;0.57;0.40;;;22.00;47.60;;;;;;5070711;28;20177;-71
2021/12/02 09:44:38;;;;;;;0.57;0.57;;;22.00;47.50;;;;;;5053870;28;20186;-71
2021/12/02 09:47:04;;;;;;;0.50;0.50;;;22.00;47.50;;;;;;5072417;28;20173;-71
2021/12/02 09:49:30;;;;;;;0.43;0.43;;;22.00;47.60;;;;;;5057243;28;20205;-72
2021/12/02 09:52:08;;;;;;;0.57;0.50;;;22.00;47.60;;;;;;5057564;28;20207;-71
2021/12/02 09:57:34;;;;;;;0.40;0.40;;;22.00;47.60;;;;;;5068288;28;20200;-71
2021/12/02 10:00:01;;;;;;;0.60;0.50;;;22.00;47.60;;;;;;5095423;28;20169;-70
2021/12/02 10:02:27;;;;;;;0.50;0.50;;;22.00;47.60;;;;;;5093948;28;20199;-72
2021/12/02 10:04:58;;;;;;;0.68;0.65;;;22.00;47.60;;;;;;5095325;28;20165;-70
2021/12/02 10:07:32;;;;;;;0.47;0.47;;;22.00;47.60;;;;;;5094247;28;20177;-71
2021/12/02 10:10:26;;;;;;;0.57;0.57;;;22.00;47.60;;;;;;5095317;28;20196;-71
2021/12/02 10:13:18;;;;;;;1.75;0.55;;;22.00;47.60;;;;;;5077138;28;20235;-71
2021/12/02 10:15:55;;;;;;;0.55;0.52;;;22.00;47.80;;;;;;5076589;28;20173;-71
2021/12/02 10:18:25;;;;;;;0.88;0.60;;;22.00;47.80;;;;;;5098101;22;20237;-68
2021/12/02 10:20:52;;;;;;;0.60;0.47;;;22.00;47.80;;;;;;5057072;28;20182;-68
2021/12/02 10:23:43;;;;;;;0.85;0.60;;;22.00;47.70;;;;;;5056922;28;20186;-67
2021/12/02 10:26:09;;;;;;;0.45;0.43;;;22.00;47.70;;;;;;5056872;28;20200;-68
2021/12/02 10:28:42;;;;;;;0.80;0.60;;;22.10;47.70;;;;;;5056487;28;20279;-67
2021/12/02 10:31:11;;;;;;;0.55;0.55;;;22.10;47.60;;;;;;5073807;28;20182;-68
2021/12/02 10:33:49;;;;;;;0.70;0.60;;;22.00;47.60;;;;;;5073410;28;20209;-68
2021/12/02 10:36:29;;;;;;;0.40;0.40;;;22.00;47.60;;;;;;5073714;28;20189;-68
2021/12/02 10:39:08;;;;;;;0.75;0.50;;;22.10;47.70;;;;;;5073058;28;20295;-65
2021/12/02 10:41:34;;;;;;;0.60;0.60;;;22.10;47.70;;;;;;5073471;28;20174;-68
2021/12/02 10:44:09;;;;;;;0.52;0.52;;;22.00;47.60;;;;;;5056384;28;20177;-68
2021/12/02 10:46:42;;;;;;;0.70;0.60;;;22.00;47.70;;;;;;5062034;28;20277;-67
2021/12/02 10:49:15;;;;;;;0.50;0.50;;;22.00;47.70;;;;;;5054012;28;20210;-68
2021/12/02 10:51:58;;;;;;;0.45;0.45;;;22.10;47.70;;;;;;5053306;28;20615;-68
2021/12/02 10:54:37;;;;;;;0.82;0.40;;;22.00;47.50;;;;;;5052854;28;20206;-68
2021/12/02 10:57:13;;;;;;;0.50;0.50;;;22.00;47.50;;;;;;5052915;28;20261;-68
2021/12/02 10:59:43;;;;;;;0.82;0.57;;;22.00;47.60;;;;;;5052576;28;20297;-67
2021/12/02 11:02:30;;;;;;;0.55;0.55;;;22.00;47.70;;;;;;5054043;28;20270;-68
2021/12/02 11:05:11;;;;;;;0.50;0.50;;;22.00;47.60;;;;;;5054382;28;20686;-69
2021/12/02 11:07:42;;;;;;;1.70;0.50;;;22.00;47.70;;;;;;5051616;28;20187;-67
2021/12/02 11:10:15;;;;;;;0.95;0.65;;;22.10;47.80;;;;;;5053989;28;20179;-68
2021/12/02 11:12:48;;;;;;;0.55;0.55;;;22.00;47.80;;;;;;5052772;28;20185;-68
2021/12/02 11:15:28;;;;;;;0.80;0.80;;;22.00;47.70;;;;;;5052716;28;20182;-68
2021/12/02 11:18:04;;;;;;;0.68;0.68;;;22.10;47.70;;;;;;5052287;28;20198;-67
2021/12/02 11:20:39;;;;;;;1.55;0.80;;;22.00;47.50;;;;;;5050175;28;20194;-67
2021/12/02 11:23:12;;;;;;;0.60;0.60;;;22.00;47.50;;;;;;5072461;28;20174;-68
2021/12/02 11:25:49;;;;;;;1.10;0.85;;;22.00;47.50;;;;;;5072363;28;20178;-68
2021/12/02 11:28:15;;;;;;;1.08;0.95;;;22.00;47.50;;;;;;5072335;28;20247;-68
2021/12/02 11:30:41;;;;;;;1.45;0.93;;;22.00;47.60;;;;;;5073757;28;20189;-68
2021/12/02 11:33:09;;;;;;;1.33;0.90;;;22.10;47.70;;;;;;5072181;28;20206;-68
2021/12/02 11:35:43;;;;;;;1.00;0.90;;;22.00;47.60;;;;;;5073713;28;20213;-68
2021/12/02 11:38:27;;;;;;;0.80;0.80;;;22.00;47.60;;;;;;5072061;28;20687;-67
2021/12/02 11:41:00;;;;;;;1.20;1.10;;;22.00;47.50;;;;;;5072500;28;20605;-68
2021/12/02 11:43:34;;;;;;;1.60;1.50;;;22.00;47.40;;;;;;5072217;28;20174;-68
2021/12/02 11:46:03;;;;;;;1.52;1.40;;;22.00;47.40;;;;;;5072133;28;20194;-68
2021/12/02 11:48:43;;;;;;;3.85;1.23;;;22.00;47.50;;;;;;5054992;28;20197;-68
2021/12/02 11:51:18;;;;;;;4.28;1.75;;;22.00;47.50;;;;;;5055224;28;20212;-67
2021/12/02 11:53:44;;;;;;;2.00;1.83;;;22.00;47.90;;;;;;5073040;28;20201;-67
2021/12/02 11:56:19;;;;;;;2.30;2.10;;;22.00;47.90;;;;;;5055186;28;20216;-68
2021/12/02 11:58:48;;;;;;;2.42;1.60;;;22.00;47.80;;;;;;5055224;28;20308;-68
2021/12/02 12:01:19;;;;;;;3.03;2.28;;;22.00;47.80;;;;;;5072244;28;20188;-69
2021/12/02 12:03:51;;;;;;;2.58;1.73;;;22.10;47.80;;;;;;5054787;28;20280;-69
2021/12/02 12:06:35;;;;;;;2.90;2.13;;;22.00;47.70;;;;;;5046744;28;20195;-67
2021/12/02 12:09:10;;;;;;;2.10;1.90;;;22.10;47.80;;;;;;5070948;28;20206;-68
2021/12/02 12:11:38;;;;;;;3.78;1.80;;;22.00;47.70;;;;;;5072135;28;20260;-68
2021/12/02 12:14:09;;;;;;;2.17;2.00;;;22.00;47.70;;;;;;5063276;28;20205;-68
2021/12/02 12:16:38;;;;;;;2.30;2.10;;;22.10;47.80;;;;;;5051691;28;20171;-68
2021/12/02 12:19:13;;;;;;;2.33;2.10;;;22.10;47.80;;;;;;5068713;28;20210;-68
2021/12/02 12:21:44;;;;;;;2.15;1.83;;;22.00;47.80;;;;;;5047972;28;20239;-68
2021/12/02 12:24:14;;;;;;;2.22;1.75;;;22.10;47.80;;;;;;5054544;28;20272;-68
2021/12/02 12:26:46;;;;;;;2.00;1.80;;;22.10;47.90;;;;;;5071217;28;20649;-68
2021/12/02 12:29:15;;;;;;;2.78;1.98;;;22.10;47.80;;;;;;5071115;28;20205;-68
2021/12/02 12:32:10;;;;;;;2.00;1.70;;;22.00;47.80;;;;;;5054858;28;20193;-67
2021/12/02 12:34:40;;;;;;;1.80;1.70;;;22.00;47.80;;;;;;5071145;28;20228;-67
2021/12/02 12:37:21;;;;;;;2.00;1.80;;;22.10;48.00;;;;;;5054430;28;20653;-67
2021/12/02 12:40:18;;;;;;;1.92;1.73;;;22.00;47.90;;;;;;5054806;28;20201;-67
2021/12/02 12:43:02;;;;;;;2.78;1.75;;;22.10;48.10;;;;;;5054841;28;20621;-67
2021/12/02 12:45:36;;;;;;;2.13;1.77;;;22.10;48.10;;;;;;5072899;28;20185;-67
2021/12/02 12:48:06;;;;;;;2.75;1.48;;;22.10;48.10;;;;;;5069361;28;20250;-67
2021/12/02 12:50:43;;;;;;;2.15;1.85;;;22.10;48.10;;;;;;5059220;28;20178;-67
2021/12/02 12:53:20;;;;;;;3.28;2.00;;;22.10;48.10;;;;;;5067681;28;20197;-67
2021/12/02 12:55:52;;;;;;;2.20;2.00;;;22.10;48.20;;;;;;5034722;28;20261;-68
2021/12/02 12:58:27;;;;;;;2.47;1.67;;;22.10;48.20;;;;;;5034430;28;20209;-67
2021/12/02 13:01:03;;;;;;;2.38;1.67;;;22.10;48.20;;;;;;5058191;28;20740;-67
2021/12/02 13:03:45;;;;;;;2.25;1.70;;;22.10;48.20;;;;;;5062702;28;20192;-67
2021/12/02 13:06:25;;;;;;;1.70;1.60;;;22.10;48.20;;;;;;5070960;28;20189;-67
2021/12/02 13:09:04;;;;;;;3.03;1.70;;;22.10;48.20;;;;;;5072023;28;20209;-67
2021/12/02 13:11:34;;;;;;;1.90;1.73;;;22.10;48.20;;;;;;5071197;28;20181;-67
2021/12/02 13:14:04;;;;;;;2.42;1.50;;;22.10;48.20;;;;;;5070914;28;20251;-67
2021/12/02 13:16:30;;;;;;;2.80;1.55;;;22.10;48.20;;;;;;5070629;28;20274;-67
2021/12/02 13:19:01;;;;;;;1.83;1.52;;;22.10;48.20;;;;;;5070524;28;20261;-67
2021/12/02 13:21:30;;;;;;;2.40;1.60;;;22.10;48.20;;;;;;5055137;28;20174;-68
2021/12/02 13:24:05;;;;;;;2.25;1.83;;;22.10;48.20;;;;;;5074589;28;20189;-67